createdAt,value
2022-08-30T00:00:57.165Z,29.10
2022-08-30T00:03:24.412Z,29.10
2022-08-30T00:05:51.440Z,28.90
2022-08-30T00:08:23.304Z,28.80
2022-08-30T00:10:51.374Z,28.90
2022-08-30T00:13:19.410Z,28.90
2022-08-30T00:15:46.358Z,28.80
2022-08-30T00:18:13.525Z,28.70
2022-08-30T00:20:40.648Z,28.70
2022-08-30T00:23:07.590Z,28.80
2022-08-30T00:25:34.797Z,29.00
2022-08-30T00:28:02.689Z,29.10
2022-08-30T00:30:29.781Z,29.10
2022-08-30T00:32:56.775Z,29.20
2022-08-30T00:35:23.916Z,29.00
2022-08-30T00:37:51.050Z,28.90
2022-08-30T00:40:20.500Z,28.70
2022-08-30T00:42:59.165Z,28.80
2022-08-30T00:45:29.776Z,28.90
2022-08-30T00:47:56.750Z,29.10
2022-08-30T00:50:26.108Z,29.00
2022-08-30T00:52:54.369Z,28.80
2022-08-30T00:55:21.499Z,28.80
2022-08-30T00:57:51.151Z,28.80
2022-08-30T01:00:18.236Z,28.70
2022-08-30T01:02:45.291Z,28.90
2022-08-30T01:05:16.119Z,29.00
2022-08-30T01:07:43.691Z,29.00
2022-08-30T01:10:12.117Z,29.20
2022-08-30T01:12:40.003Z,29.10
2022-08-30T01:15:07.765Z,28.90
2022-08-30T01:17:35.321Z,29.00
2022-08-30T01:20:02.510Z,29.00
2022-08-30T01:22:32.451Z,29.00
2022-08-30T01:25:00.503Z,29.10
2022-08-30T01:27:28.485Z,28.90
2022-08-30T01:29:55.565Z,28.80
2022-08-30T01:32:28.965Z,28.90
2022-08-30T01:34:56.967Z,28.90
2022-08-30T01:37:25.971Z,28.90
2022-08-30T01:39:53.028Z,28.90
2022-08-30T01:42:20.525Z,28.80
2022-08-30T01:44:48.808Z,29.00
2022-08-30T01:47:16.050Z,29.10
2022-08-30T01:49:42.927Z,29.10
2022-08-30T01:52:09.860Z,29.20
2022-08-30T01:54:38.182Z,29.30
2022-08-30T01:57:06.536Z,29.20
2022-08-30T01:59:33.410Z,29.30
2022-08-30T02:02:01.360Z,29.20
2022-08-30T02:04:28.219Z,29.00
2022-08-30T02:06:55.157Z,29.00
2022-08-30T02:09:22.050Z,29.00
2022-08-30T02:11:48.962Z,28.90
2022-08-30T02:14:15.937Z,28.80
2022-08-30T02:16:42.809Z,28.90
2022-08-30T02:19:09.705Z,28.80
2022-08-30T02:21:39.813Z,28.90
2022-08-30T02:24:06.759Z,28.90
2022-08-30T02:26:33.644Z,28.90
2022-08-30T02:29:00.561Z,29.00
2022-08-30T02:31:29.532Z,29.10
2022-08-30T02:33:56.444Z,29.00
2022-08-30T02:36:23.540Z,28.90
2022-08-30T02:38:51.149Z,29.10
2022-08-30T02:41:18.558Z,28.90
2022-08-30T02:43:45.540Z,29.10
2022-08-30T02:46:12.935Z,29.10
2022-08-30T02:48:39.834Z,29.00
2022-08-30T02:51:09.615Z,29.00
2022-08-30T02:53:38.942Z,28.90
2022-08-30T02:56:05.950Z,28.90
2022-08-30T02:58:32.910Z,28.90
2022-08-30T03:01:01.520Z,28.90
2022-08-30T03:03:28.484Z,28.80
2022-08-30T03:05:55.367Z,28.90
2022-08-30T03:08:23.014Z,29.00
2022-08-30T03:10:50.520Z,28.90
2022-08-30T03:13:17.666Z,29.00
2022-08-30T03:15:46.834Z,29.00
2022-08-30T03:18:13.671Z,28.90
2022-08-30T03:20:41.190Z,29.10
2022-08-30T03:23:10.872Z,28.90
2022-08-30T03:25:48.522Z,28.90
2022-08-30T03:28:15.429Z,28.90
2022-08-30T03:30:42.457Z,29.00
2022-08-30T03:33:09.355Z,28.90
2022-08-30T03:35:38.395Z,28.90
2022-08-30T03:38:05.950Z,28.90
2022-08-30T03:40:33.047Z,29.00
2022-08-30T03:43:00.539Z,29.00
2022-08-30T03:45:28.578Z,29.10
2022-08-30T03:47:55.563Z,29.10
2022-08-30T03:50:22.972Z,29.10
2022-08-30T03:52:49.925Z,29.00
2022-08-30T03:55:17.131Z,29.10
2022-08-30T03:57:44.070Z,29.30
2022-08-30T04:00:11.438Z,29.50
2022-08-30T04:02:38.591Z,29.60
2022-08-30T04:05:06.057Z,29.50
2022-08-30T04:07:32.911Z,29.40
2022-08-30T04:10:00.941Z,29.60
2022-08-30T04:12:28.022Z,29.50
2022-08-30T04:14:55.197Z,29.50
2022-08-30T04:17:22.140Z,29.40
2022-08-30T04:19:49.031Z,29.30
2022-08-30T04:22:16.140Z,29.50
2022-08-30T04:24:42.994Z,29.70
2022-08-30T04:27:11.194Z,29.50
2022-08-30T04:29:38.125Z,29.40
2022-08-30T04:32:05.419Z,29.60
2022-08-30T04:34:32.268Z,29.70
2022-08-30T04:36:59.439Z,29.80
2022-08-30T04:39:26.656Z,29.70
2022-08-30T04:41:53.522Z,29.50
2022-08-30T04:44:20.402Z,29.70
2022-08-30T04:46:47.731Z,29.80
2022-08-30T04:49:14.869Z,29.70
2022-08-30T04:51:41.736Z,29.60
2022-08-30T04:54:08.621Z,29.50
2022-08-30T04:56:35.449Z,29.40
2022-08-30T04:59:02.516Z,29.50
2022-08-30T05:01:30.564Z,29.20
2022-08-30T05:03:58.191Z,29.30
2022-08-30T05:06:27.574Z,29.20
2022-08-30T05:08:54.887Z,29.10
2022-08-30T05:11:23.574Z,28.90
2022-08-30T05:13:50.457Z,28.70
2022-08-30T05:16:20.248Z,28.90
2022-08-30T05:18:48.578Z,29.20
2022-08-30T05:21:20.377Z,29.20
2022-08-30T05:23:47.717Z,29.30
2022-08-30T05:26:19.429Z,29.40
2022-08-30T05:28:46.336Z,29.40
2022-08-30T05:31:19.803Z,29.40
2022-08-30T05:33:48.028Z,29.40
2022-08-30T05:36:15.850Z,29.60
2022-08-30T05:38:43.146Z,29.80
2022-08-30T05:41:11.511Z,29.60
2022-08-30T05:43:38.838Z,29.50
2022-08-30T05:46:11.612Z,29.50
2022-08-30T05:48:39.158Z,29.30
2022-08-30T05:51:09.279Z,29.00
2022-08-30T05:53:36.932Z,28.80
2022-08-30T05:56:04.941Z,28.60
2022-08-30T05:58:32.471Z,28.80
2022-08-30T06:00:59.659Z,28.70
2022-08-30T06:03:27.061Z,29.00
2022-08-30T06:05:54.454Z,29.40
2022-08-30T06:08:22.848Z,29.40
2022-08-30T06:10:49.813Z,29.40
2022-08-30T06:13:16.759Z,29.20
2022-08-30T06:15:45.325Z,29.30
2022-08-30T06:18:13.158Z,29.40
2022-08-30T06:20:43.961Z,28.90
2022-08-30T06:23:11.292Z,28.60
2022-08-30T06:25:41.177Z,28.20
2022-08-30T06:28:09.778Z,27.70
2022-08-30T06:30:37.761Z,27.80
2022-08-30T06:33:04.713Z,28.40
2022-08-30T06:35:38.066Z,27.60
2022-08-30T06:38:05.523Z,27.40
2022-08-30T06:40:32.603Z,27.40
2022-08-30T06:42:59.894Z,27.30
2022-08-30T06:45:27.757Z,27.20
2022-08-30T06:47:54.732Z,27.00
2022-08-30T06:50:21.566Z,26.60
2022-08-30T06:52:49.119Z,26.50
2022-08-30T06:55:16.733Z,26.30
2022-08-30T06:57:43.747Z,26.60
2022-08-30T07:00:12.486Z,26.50
2022-08-30T07:02:39.752Z,27.30
2022-08-30T07:05:08.120Z,26.40
2022-08-30T07:07:35.596Z,26.10
2022-08-30T07:10:04.068Z,25.30
2022-08-30T07:12:30.864Z,24.20
2022-08-30T07:14:57.836Z,23.50
2022-08-30T07:17:43.183Z,23.10
2022-08-30T07:20:10.557Z,23.40
2022-08-30T07:22:37.447Z,23.30
2022-08-30T07:25:04.550Z,23.40
2022-08-30T07:27:31.858Z,23.20
2022-08-30T07:29:59.505Z,23.20
2022-08-30T07:32:26.321Z,23.20
2022-08-30T07:34:53.378Z,23.70
2022-08-30T07:37:20.374Z,24.00
2022-08-30T07:39:48.173Z,24.10
2022-08-30T07:42:15.764Z,24.10
2022-08-30T07:44:42.609Z,23.60
2022-08-30T07:47:09.820Z,22.80
2022-08-30T07:49:40.303Z,22.40
2022-08-30T07:52:07.151Z,22.00
2022-08-30T07:54:34.214Z,21.70
2022-08-30T07:57:01.312Z,22.50
2022-08-30T07:59:29.949Z,21.80
2022-08-30T08:01:57.651Z,21.50
2022-08-30T08:04:24.554Z,21.60
2022-08-30T08:06:51.482Z,21.10
2022-08-30T08:09:19.793Z,21.20
2022-08-30T08:11:46.690Z,20.90
2022-08-30T08:14:13.711Z,20.90
2022-08-30T08:16:42.431Z,21.20
2022-08-30T08:19:09.483Z,21.30
2022-08-30T08:21:36.799Z,21.50
2022-08-30T08:24:04.373Z,21.80
2022-08-30T08:26:33.867Z,22.10
2022-08-30T08:29:00.818Z,21.60
2022-08-30T08:31:33.650Z,21.90
2022-08-30T08:34:03.244Z,22.00
2022-08-30T08:36:31.889Z,21.80
2022-08-30T08:38:59.269Z,21.50
2022-08-30T08:41:44.892Z,21.20
2022-08-30T08:44:19.496Z,21.10
2022-08-30T08:46:56.757Z,20.80
2022-08-30T08:49:23.855Z,21.10
2022-08-30T08:52:09.450Z,21.00
2022-08-30T08:54:44.626Z,20.30
2022-08-30T08:57:15.996Z,20.00
2022-08-30T08:59:45.034Z,20.10
2022-08-30T09:02:26.080Z,20.00
2022-08-30T09:04:58.488Z,20.30
2022-08-30T09:07:28.270Z,21.00
2022-08-30T09:09:56.654Z,20.80
2022-08-30T09:12:23.503Z,20.60
2022-08-30T09:14:54.522Z,20.10
2022-08-30T09:17:23.384Z,19.50
2022-08-30T09:19:53.118Z,19.50
2022-08-30T09:22:39.921Z,19.30
2022-08-30T09:25:18.273Z,18.70
2022-08-30T09:27:46.469Z,18.10
2022-08-30T09:30:22.304Z,18.20
2022-08-30T09:33:03.074Z,17.70
2022-08-30T09:35:38.075Z,17.70
2022-08-30T09:38:09.546Z,18.00
2022-08-30T09:40:36.501Z,17.90
2022-08-30T09:43:06.319Z,17.70
2022-08-30T09:45:36.203Z,17.50
2022-08-30T09:48:21.093Z,17.60
2022-08-30T09:50:53.158Z,17.30
2022-08-30T09:53:24.626Z,17.40
2022-08-30T09:56:10.192Z,17.20
2022-08-30T09:58:40.320Z,17.40
2022-08-30T10:01:12.176Z,17.20
2022-08-30T10:03:46.949Z,17.20
2022-08-30T10:06:42.993Z,16.40
2022-08-30T10:09:22.464Z,16.70
2022-08-30T10:12:08.212Z,16.50
2022-08-30T10:14:45.676Z,16.90
2022-08-30T10:17:20.092Z,16.90
2022-08-30T10:20:09.118Z,17.50
2022-08-30T10:22:39.167Z,18.10
2022-08-30T10:25:16.351Z,18.30
2022-08-30T10:27:48.755Z,18.60
2022-08-30T10:30:16.864Z,18.90
2022-08-30T10:32:50.746Z,19.00
2022-08-30T10:35:20.780Z,19.20
2022-08-30T10:37:50.342Z,19.60
2022-08-30T10:40:43.357Z,19.40
2022-08-30T10:43:16.054Z,19.50
2022-08-30T10:45:44.969Z,19.50
2022-08-30T10:48:16.658Z,19.10
2022-08-30T10:50:50.227Z,18.90
2022-08-30T10:53:18.892Z,18.60
2022-08-30T10:55:55.342Z,18.20
2022-08-30T10:58:22.386Z,17.40
2022-08-30T11:01:07.761Z,17.10
2022-08-30T11:03:39.926Z,17.30
2022-08-30T11:06:24.899Z,17.70
2022-08-30T11:09:18.084Z,17.40
2022-08-30T11:11:54.802Z,17.90
2022-08-30T11:14:25.495Z,17.50
2022-08-30T11:16:54.895Z,17.40
2022-08-30T11:19:21.753Z,17.40
2022-08-30T11:21:50.077Z,17.20
2022-08-30T11:24:21.184Z,16.90
2022-08-30T11:26:51.038Z,16.80
2022-08-30T11:29:36.969Z,16.60
2022-08-30T11:32:24.115Z,16.70
2022-08-30T11:34:55.537Z,16.70
2022-08-30T11:37:25.158Z,16.30
2022-08-30T11:39:53.434Z,16.30
2022-08-30T11:42:29.412Z,15.80
2022-08-30T11:45:36.327Z,15.80
2022-08-30T11:48:05.719Z,16.00
2022-08-30T11:50:32.551Z,15.70
2022-08-30T11:53:05.746Z,15.30
2022-08-30T11:55:51.231Z,15.30
2022-08-30T11:58:18.385Z,15.20
2022-08-30T12:00:52.599Z,15.20
2022-08-30T12:03:20.762Z,15.10
2022-08-30T12:05:51.284Z,15.30
2022-08-30T12:08:24.210Z,15.00
2022-08-30T12:10:56.503Z,15.30
2022-08-30T12:13:46.442Z,15.30
2022-08-30T12:16:16.429Z,15.20
2022-08-30T12:18:55.659Z,15.40
2022-08-30T12:21:22.763Z,15.40
2022-08-30T12:23:57.219Z,15.20
2022-08-30T12:26:25.108Z,15.00
2022-08-30T12:28:53.994Z,15.40
2022-08-30T12:31:22.865Z,15.60
2022-08-30T12:34:00.834Z,15.90
2022-08-30T12:36:51.006Z,16.10
2022-08-30T12:39:22.708Z,16.00
2022-08-30T12:41:49.662Z,15.80
2022-08-30T12:44:26.181Z,16.00
2022-08-30T12:47:03.329Z,16.30
2022-08-30T12:49:31.942Z,16.10
2022-08-30T12:52:20.041Z,16.50
2022-08-30T12:54:47.206Z,17.00
2022-08-30T12:57:32.337Z,16.80
2022-08-30T13:00:02.101Z,17.20
2022-08-30T13:02:52.484Z,17.30
2022-08-30T13:05:44.953Z,17.60
2022-08-30T13:08:15.838Z,17.80
2022-08-30T13:10:52.161Z,17.90
2022-08-30T13:13:52.087Z,17.40
2022-08-30T13:16:22.370Z,17.30
2022-08-30T13:18:51.168Z,17.20
2022-08-30T13:21:31.719Z,17.10
2022-08-30T13:24:00.045Z,17.70
2022-08-30T13:26:30.505Z,17.10
2022-08-30T13:28:58.855Z,17.50
2022-08-30T13:31:27.357Z,17.60
2022-08-30T13:33:55.397Z,17.50
2022-08-30T13:36:25.092Z,17.50
2022-08-30T13:38:52.244Z,17.70
2022-08-30T13:41:21.293Z,17.80
2022-08-30T13:46:35.937Z,18.00
2022-08-30T13:49:42.667Z,17.60
2022-08-30T13:52:19.066Z,17.30
2022-08-30T13:54:40.937Z,17.40
2022-08-30T13:57:07.869Z,17.30
2022-08-30T13:59:34.937Z,17.10
2022-08-30T14:02:10.695Z,17.00
2022-08-30T14:04:38.627Z,17.10
2022-08-30T14:07:19.824Z,17.60
2022-08-30T14:09:47.629Z,17.80
2022-08-30T14:12:14.673Z,18.40
2022-08-30T14:14:43.964Z,18.10
2022-08-30T14:17:11.389Z,17.90
2022-08-30T14:19:39.617Z,17.90
2022-08-30T14:22:06.503Z,17.60
2022-08-30T14:24:33.345Z,17.60
2022-08-30T14:27:01.577Z,17.50
2022-08-30T14:29:30.060Z,17.40
2022-08-30T14:31:59.844Z,17.50
2022-08-30T14:34:26.969Z,17.60
2022-08-30T14:36:54.066Z,17.90
2022-08-30T14:39:21.331Z,18.00
2022-08-30T14:41:52.928Z,17.90
2022-08-30T14:44:20.973Z,18.10
2022-08-30T14:46:48.224Z,18.40
2022-08-30T14:49:15.801Z,18.70
2022-08-30T14:51:42.862Z,19.20
2022-08-30T14:54:10.108Z,19.50
2022-08-30T14:56:37.343Z,20.10
2022-08-30T14:59:04.301Z,20.20
2022-08-30T15:01:31.970Z,20.50
2022-08-30T15:04:04.648Z,20.70
2022-08-30T15:06:34.923Z,20.70
2022-08-30T15:09:03.483Z,20.90
2022-08-30T15:11:31.254Z,21.30
2022-08-30T15:14:00.493Z,21.70
2022-08-30T15:16:32.056Z,22.00
2022-08-30T15:18:59.422Z,22.00
2022-08-30T15:21:37.246Z,22.20
2022-08-30T15:24:06.508Z,22.80
2022-08-30T15:26:33.503Z,22.80
2022-08-30T15:29:00.369Z,22.80
2022-08-30T15:31:33.862Z,22.90
2022-08-30T15:34:01.723Z,23.10
2022-08-30T15:36:30.056Z,23.20
2022-08-30T15:38:59.483Z,23.20
2022-08-30T15:41:27.085Z,23.20
2022-08-30T15:43:56.379Z,23.80
2022-08-30T15:46:23.412Z,23.80
2022-08-30T15:48:58.908Z,23.60
2022-08-30T15:51:26.343Z,23.70
2022-08-30T15:53:54.574Z,24.10
2022-08-30T15:56:21.777Z,24.10
2022-08-30T15:58:48.964Z,24.30
2022-08-30T16:01:20.058Z,24.20
2022-08-30T16:03:57.899Z,24.20
2022-08-30T16:06:26.316Z,24.20
2022-08-30T16:08:53.145Z,24.40
2022-08-30T16:11:22.825Z,24.50
2022-08-30T16:13:51.369Z,24.50
2022-08-30T16:16:19.777Z,24.50
2022-08-30T16:18:47.041Z,24.60
2022-08-30T16:21:24.724Z,24.60
2022-08-30T16:23:53.850Z,24.80
2022-08-30T16:26:21.646Z,24.50
2022-08-30T16:28:49.237Z,24.80
2022-08-30T16:31:17.200Z,24.90
2022-08-30T16:33:47.044Z,25.20
2022-08-30T16:36:19.860Z,25.00
2022-08-30T16:38:48.231Z,25.20
2022-08-30T16:41:21.367Z,25.20
2022-08-30T16:43:49.487Z,25.30
2022-08-30T16:46:17.159Z,25.30
2022-08-30T16:48:44.933Z,25.10
2022-08-30T16:51:13.580Z,25.20
2022-08-30T16:53:40.899Z,25.20
2022-08-30T16:56:11.016Z,24.90
2022-08-30T16:58:37.890Z,24.90
2022-08-30T17:01:06.350Z,24.90
2022-08-30T17:03:33.605Z,25.00
2022-08-30T17:06:00.590Z,25.10
2022-08-30T17:08:27.498Z,25.00
2022-08-30T17:10:54.347Z,25.20
2022-08-30T17:13:21.987Z,25.10
2022-08-30T17:15:52.538Z,25.00
2022-08-30T17:18:19.714Z,25.00
2022-08-30T17:20:46.742Z,25.10
2022-08-30T17:23:14.285Z,25.00
2022-08-30T17:25:41.208Z,25.00
2022-08-30T17:28:08.459Z,25.10
2022-08-30T17:30:35.590Z,25.20
2022-08-30T17:33:02.878Z,25.20
2022-08-30T17:35:29.861Z,25.60
2022-08-30T17:37:57.276Z,25.20
2022-08-30T17:40:24.176Z,25.00
2022-08-30T17:42:51.415Z,25.10
2022-08-30T17:45:19.141Z,25.10
2022-08-30T17:47:46.100Z,25.10
2022-08-30T17:50:19.478Z,25.20
2022-08-30T17:52:46.634Z,25.10
2022-08-30T17:55:14.197Z,25.30
2022-08-30T17:57:44.019Z,25.30
2022-08-30T18:00:15.769Z,25.20
2022-08-30T18:02:42.917Z,25.20
2022-08-30T18:05:10.409Z,25.20
2022-08-30T18:07:37.441Z,25.30
2022-08-30T18:10:04.973Z,25.40
2022-08-30T18:12:31.972Z,25.40
2022-08-30T18:15:01.629Z,25.40
2022-08-30T18:17:40.310Z,25.40
2022-08-30T18:20:08.205Z,25.40
2022-08-30T18:22:35.219Z,25.40
2022-08-30T18:25:02.777Z,25.30
2022-08-30T18:27:29.788Z,25.40
2022-08-30T18:29:57.332Z,25.40
2022-08-30T18:32:32.873Z,25.60
2022-08-30T18:35:03.462Z,25.80
2022-08-30T18:37:32.586Z,26.00
2022-08-30T18:39:59.749Z,26.30
2022-08-30T18:42:27.931Z,26.10
2022-08-30T18:44:54.913Z,26.10
2022-08-30T18:47:23.075Z,26.10
2022-08-30T18:49:50.810Z,26.10
2022-08-30T18:52:17.764Z,26.20
2022-08-30T18:54:52.650Z,26.10
2022-08-30T18:57:20.814Z,26.10
2022-08-30T18:59:48.893Z,26.20
2022-08-30T19:02:17.698Z,26.30
2022-08-30T19:04:45.749Z,26.30
2022-08-30T19:07:14.339Z,26.30
2022-08-30T19:09:41.935Z,26.20
2022-08-30T19:12:11.592Z,26.10
2022-08-30T19:14:39.190Z,26.10
2022-08-30T19:17:07.252Z,26.20
2022-08-30T19:22:26.715Z,26.10
2022-08-30T19:24:54.539Z,26.00
2022-08-30T19:27:37.685Z,26.10
2022-08-30T19:30:11.800Z,26.10
2022-08-30T19:32:38.760Z,26.10
2022-08-30T19:35:06.585Z,26.20
2022-08-30T19:37:34.339Z,26.40
2022-08-30T19:40:02.136Z,26.50
2022-08-30T19:42:29.107Z,26.50
2022-08-30T19:44:59.693Z,26.50
2022-08-30T19:47:26.563Z,26.40
2022-08-30T19:49:53.621Z,26.20
2022-08-30T19:52:21.360Z,26.00
2022-08-30T19:54:48.270Z,26.00
2022-08-30T19:57:18.502Z,26.00
2022-08-30T19:59:50.470Z,26.00
2022-08-30T20:02:17.635Z,26.00
2022-08-30T20:04:47.090Z,26.00
2022-08-30T20:07:27.491Z,26.00
2022-08-30T20:09:55.267Z,26.10
2022-08-30T20:12:22.313Z,26.10
2022-08-30T20:14:52.407Z,26.20
2022-08-30T20:17:22.127Z,26.20
2022-08-30T20:19:49.324Z,26.20
2022-08-30T20:22:16.320Z,26.30
2022-08-30T20:24:33.017Z,26.20
2022-08-30T20:24:44.052Z,26.40
2022-08-30T20:27:11.361Z,26.40
2022-08-30T20:29:40.263Z,26.40
2022-08-30T20:32:10.713Z,26.30
2022-08-30T20:34:38.000Z,26.30
2022-08-30T20:37:08.336Z,26.20
2022-08-30T20:39:40.223Z,26.20
2022-08-30T20:42:09.187Z,26.10
2022-08-30T20:44:41.213Z,26.00
2022-08-30T20:47:10.395Z,26.10
2022-08-30T20:49:37.638Z,26.20
2022-08-30T20:52:04.899Z,26.30
2022-08-30T20:54:32.056Z,26.40
2022-08-30T20:57:01.245Z,26.40
2022-08-30T20:59:28.220Z,26.30
2022-08-30T21:01:56.362Z,26.20
2022-08-30T21:04:24.756Z,26.20
2022-08-30T21:06:52.170Z,26.20
2022-08-30T21:09:24.519Z,26.20
2022-08-30T21:11:55.611Z,26.20
2022-08-30T21:14:22.716Z,26.10
2022-08-30T21:16:50.235Z,26.10
2022-08-30T21:19:17.261Z,26.00
2022-08-30T21:21:49.019Z,26.10
2022-08-30T21:24:18.423Z,26.10
2022-08-30T21:26:45.475Z,26.10
2022-08-30T21:29:16.911Z,26.20
2022-08-30T21:31:50.969Z,26.20
2022-08-30T21:34:22.167Z,26.30
2022-08-30T21:36:54.779Z,26.30
2022-08-30T21:39:26.530Z,26.30
2022-08-30T21:41:57.028Z,26.30
2022-08-30T21:44:25.146Z,26.20
2022-08-30T21:46:53.041Z,26.30
2022-08-30T21:49:21.895Z,26.20
2022-08-30T21:51:52.306Z,26.20
2022-08-30T21:54:19.713Z,26.20
2022-08-30T21:56:47.768Z,26.10
2022-08-30T21:59:15.090Z,26.20
2022-08-30T22:01:43.497Z,26.20
2022-08-30T22:04:11.067Z,26.20
2022-08-30T22:06:39.205Z,26.20
2022-08-30T22:09:07.769Z,26.10
2022-08-30T22:11:35.273Z,26.10
2022-08-30T22:14:03.043Z,26.10
2022-08-30T22:16:30.727Z,26.10
2022-08-30T22:18:57.720Z,26.60
2022-08-30T22:21:25.946Z,26.10
2022-08-30T22:23:53.030Z,26.10
2022-08-30T22:26:20.479Z,26.10
2022-08-30T22:28:47.712Z,26.20
2022-08-30T22:31:15.627Z,26.10
2022-08-30T22:33:43.212Z,26.00
2022-08-30T22:36:15.116Z,25.90
2022-08-30T22:38:42.173Z,25.90
2022-08-30T22:41:10.869Z,26.00
2022-08-30T22:43:37.809Z,26.10
2022-08-30T22:46:07.153Z,26.70
2022-08-30T22:48:35.627Z,26.60
2022-08-30T22:51:02.555Z,26.00
2022-08-30T22:53:29.552Z,26.00
2022-08-30T22:55:56.529Z,26.00
2022-08-30T22:58:25.985Z,26.10
2022-08-30T23:00:55.033Z,26.20
2022-08-30T23:03:22.455Z,26.30
2022-08-30T23:05:49.327Z,26.20
2022-08-30T23:08:16.292Z,26.20
2022-08-30T23:10:44.462Z,26.20
2022-08-30T23:13:11.777Z,26.20
2022-08-30T23:15:38.733Z,26.10
2022-08-30T23:18:05.808Z,26.10
2022-08-30T23:20:33.015Z,26.00
2022-08-30T23:23:00.868Z,26.10
2022-08-30T23:25:47.741Z,26.10
2022-08-30T23:28:38.609Z,26.00
2022-08-30T23:31:34.786Z,26.10
2022-08-30T23:34:21.586Z,26.00
2022-08-30T23:37:06.858Z,26.00
2022-08-30T23:39:52.357Z,25.90
2022-08-30T23:42:37.518Z,25.90
2022-08-30T23:45:23.188Z,25.80
2022-08-30T23:48:08.509Z,25.90
2022-08-30T23:50:53.859Z,25.90
2022-08-30T23:53:39.499Z,25.80
2022-08-30T23:56:30.278Z,25.90
2022-08-30T23:59:15.678Z,25.80
